Time,TemperatureF,DewpointF,PressureIn,WindDirection,WindDirectionDegrees,WindSpeedMPH,WindSpeedGustMPH,Humidity,HourlyPrecipIn,Conditions,Clouds,dailyrainin,SoftwareType,DateUTC
2013-02-01 00:00:00,31.0,17.6,29.89,WSW,243,2.0,3.0,57,0.00,,---,0.00,VWS V14.01,2013-02-01 05:00:00,
2013-02-01 00:02:00,31.0,17.6,29.89,SSW,210,3.0,3.0,57,0.00,,---,0.00,VWS V14.01,2013-02-01 05:02:00,
2013-02-01 00:07:00,31.2,17.3,29.88,SSW,197,3.0,4.0,56,0.00,,---,0.00,VWS V14.01,2013-02-01 05:07:00,
2013-02-01 00:10:00,31.2,17.8,29.88,SW,226,1.0,4.0,57,0.00,,---,0.00,VWS V14.01,2013-02-01 05:10:00,
2013-02-01 00:12:00,31.2,17.8,29.88,SW,224,3.0,6.0,57,0.00,,---,0.00,VWS V14.01,2013-02-01 05:12:00,
2013-02-01 00:17:00,31.4,17.5,29.88,SW,226,1.0,6.0,56,0.00,,---,0.00,VWS V14.01,2013-02-01 05:17:00,
2013-02-01 00:20:00,33.2,19.2,29.86,SSW,197,1.0,6.0,56,0.00,,---,0.00,VWS V14.01,2013-02-01 05:20:00,
2013-02-01 00:22:00,31.3,17.4,29.87,SE,129,1.0,1.0,56,0.00,,---,0.00,VWS V14.01,2013-02-01 05:22:00,
2013-02-01 00:27:00,31.1,18.1,29.87,SSE,148,0.0,1.0,58,0.00,,---,0.00,VWS V14.01,2013-02-01 05:27:00,
2013-02-01 00:30:00,31.1,18.1,29.87,SE,134,0.0,1.0,58,0.00,,---,0.00,VWS V14.01,2013-02-01 05:30:00,
2013-02-01 00:32:00,31.0,18.0,29.87,SSW,197,1.0,1.0,58,0.00,,---,0.00,VWS V14.01,2013-02-01 05:32:00,
2013-02-01 00:37:00,31.1,18.1,29.87,South,183,2.0,2.0,58,0.00,,---,0.00,VWS V14.01,2013-02-01 05:37:00,
2013-02-01 00:40:00,31.3,18.6,29.87,SSE,152,1.0,3.0,59,0.00,,---,0.00,VWS V14.01,2013-02-01 05:40:00,
2013-02-01 00:42:00,31.4,18.7,29.87,SSW,205,1.0,3.0,59,0.00,,---,0.00,VWS V14.01,2013-02-01 05:42:00,
2013-02-01 00:47:00,31.7,18.6,29.87,SSE,156,2.0,3.0,58,0.00,,---,0.00,VWS V14.01,2013-02-01 05:47:00,
2013-02-01 00:50:00,32.0,18.9,29.87,SSW,201,0.0,3.0,58,0.00,,---,0.00,VWS V14.01,2013-02-01 05:50:00,
2013-02-01 00:52:00,32.1,19.0,29.87,South,191,2.0,2.0,58,0.00,,---,0.00,VWS V14.01,2013-02-01 05:52:00,
2013-02-01 00:57:00,32.3,19.2,29.87,SSE,165,0.0,2.0,58,0.00,,---,0.00,VWS V14.01,2013-02-01 05:57:00,
2013-02-01 01:00:00,32.4,18.9,29.88,SSW,201,0.0,2.0,57,0.00,,---,0.00,VWS V14.01,2013-02-01 06:00:00,
2013-02-01 01:02:00,32.5,19.4,29.87,SSW,204,0.0,3.0,58,0.00,,---,0.00,VWS V14.01,2013-02-01 06:02:00,
2013-02-01 01:07:00,32.7,19.6,29.87,South,181,2.0,3.0,58,0.00,,---,0.00,VWS V14.01,2013-02-01 06:07:00,
2013-02-01 01:10:00,32.8,19.3,29.87,SSW,212,2.0,5.0,57,0.00,,---,0.00,VWS V14.01,2013-02-01 06:10:00,
2013-02-01 01:12:00,32.9,19.4,29.87,SSW,200,2.0,3.0,57,0.00,,---,0.00,VWS V14.01,2013-02-01 06:12:00,
2013-02-01 01:17:00,33.1,18.7,29.87,South,188,3.0,6.0,55,0.00,,---,0.00,VWS V14.01,2013-02-01 06:17:00,
2013-02-01 01:20:00,33.2,19.2,29.87,SSW,197,1.0,6.0,56,0.00,,---,0.00,VWS V14.01,2013-02-01 06:20:00,
2013-02-01 01:22:00,33.2,19.2,29.87,South,190,1.0,5.0,56,0.00,,---,0.00,VWS V14.01,2013-02-01 06:22:00,
2013-02-01 01:27:00,33.3,19.3,29.87,SSW,200,1.0,5.0,56,0.00,,---,0.00,VWS V14.01,2013-02-01 06:27:00,
2013-02-01 01:30:00,33.3,19.7,29.87,SSW,208,1.0,5.0,57,0.00,,---,0.00,VWS V14.01,2013-02-01 06:30:00,
2013-02-01 01:37:00,33.4,19.4,29.86,SSW,198,0.0,4.0,56,0.00,,---,0.00,VWS V14.01,2013-02-01 06:37:00,
2013-02-01 01:40:00,34.5,21.7,29.83,WNW,288,4.0,9.0,59,0.00,,---,0.00,VWS V14.01,2013-02-01 06:40:00,
2013-02-01 01:42:00,33.4,19.4,29.85,South,176,2.0,3.0,56,0.00,,---,0.00,VWS V14.01,2013-02-01 06:42:00,
2013-02-01 01:47:00,33.4,19.4,29.85,SSE,159,0.0,3.0,56,0.00,,---,0.00,VWS V14.01,2013-02-01 06:47:00,
2013-02-01 01:50:00,33.5,19.9,29.85,SSW,201,0.0,3.0,57,0.00,,---,0.00,VWS V14.01,2013-02-01 06:50:00,
2013-02-01 01:52:00,33.4,19.8,29.84,SSW,201,0.0,0.0,57,0.00,,---,0.00,VWS V14.01,2013-02-01 06:52:00,
2013-02-01 01:57:00,33.3,19.7,29.84,SSE,162,0.0,0.0,57,0.00,,---,0.00,VWS V14.01,2013-02-01 06:57:00,
2013-02-01 02:00:00,33.3,19.7,29.84,SSE,147,0.0,1.0,57,0.00,,---,0.00,VWS V14.01,2013-02-01 07:00:00,
2013-02-01 02:10:00,33.2,20.8,29.84,SW,218,0.0,2.0,60,0.00,,---,0.00,VWS V14.01,2013-02-01 07:10:00,
2013-02-01 02:20:00,33.1,20.7,29.83,SW,235,0.0,1.0,60,0.00,,---,0.00,VWS V14.01,2013-02-01 07:20:00,
2013-02-01 02:22:00,33.1,21.5,29.83,SW,235,0.0,1.0,62,0.00,,---,0.00,VWS V14.01,2013-02-01 07:22:00,
2013-02-01 02:27:00,33.2,21.2,29.82,South,191,3.0,6.0,61,0.00,,---,0.00,VWS V14.01,2013-02-01 07:27:00,
2013-02-01 02:30:00,33.5,21.5,29.83,SW,225,3.0,10.0,61,0.00,,---,0.00,VWS V14.01,2013-02-01 07:30:00,
2013-02-01 02:32:00,33.8,21.4,29.83,SW,232,4.0,9.0,60,0.00,,---,0.00,VWS V14.01,2013-02-01 07:32:00,
2013-02-01 02:37:00,34.2,21.8,29.83,WSW,245,1.0,9.0,60,0.00,,---,0.00,VWS V14.01,2013-02-01 07:37:00,
2013-02-01 02:40:00,34.5,21.7,29.83,WNW,288,4.0,9.0,59,0.00,,---,0.00,VWS V14.01,2013-02-01 07:40:00,
2013-02-01 02:42:00,34.7,21.5,29.82,West,259,1.0,6.0,58,0.00,,---,0.00,VWS V14.01,2013-02-01 07:42:00,
2013-02-01 02:47:00,34.9,22.0,29.81,SW,221,4.0,7.0,59,0.00,,---,0.00,VWS V14.01,2013-02-01 07:47:00,
2013-02-01 02:50:00,35.0,21.7,29.81,SW,226,2.0,7.0,58,0.00,,---,0.00,VWS V14.01,2013-02-01 07:50:00,
2013-02-01 02:52:00,35.0,21.7,29.81,WSW,246,0.0,3.0,58,0.00,,---,0.00,VWS V14.01,2013-02-01 07:52:00,
2013-02-01 02:57:00,34.9,21.6,29.80,WSW,238,0.0,3.0,58,0.00,,---,0.00,VWS V14.01,2013-02-01 07:57:00,
2013-02-01 03:00:00,32.0,23.3,29.78,ENE,65,0.0,1.0,70,0.00,,---,0.00,VWS V14.01,2013-02-01 08:00:00,
2013-02-01 03:02:00,34.9,21.6,29.81,West,259,0.0,0.0,58,0.00,,---,0.00,VWS V14.01,2013-02-01 08:02:00,
2013-02-01 03:07:00,34.8,21.1,29.80,West,270,0.0,3.0,57,0.00,,---,0.00,VWS V14.01,2013-02-01 08:07:00,
2013-02-01 03:10:00,34.7,21.0,29.80,West,271,0.0,3.0,57,0.00,,---,0.00,VWS V14.01,2013-02-01 08:10:00,
2013-02-01 03:12:00,34.7,21.9,29.80,West,274,1.0,2.0,59,0.00,,---,0.00,VWS V14.01,2013-02-01 08:12:00,
2013-02-01 03:17:00,34.4,21.6,29.79,West,276,0.0,2.0,59,0.00,,---,0.00,VWS V14.01,2013-02-01 08:17:00,
2013-02-01 03:20:00,34.4,21.6,29.79,West,275,0.0,2.0,59,0.00,,---,0.00,VWS V14.01,2013-02-01 08:20:00,
2013-02-01 03:22:00,34.2,21.4,29.79,West,276,0.0,0.0,59,0.00,,---,0.00,VWS V14.01,2013-02-01 08:22:00,
2013-02-01 03:27:00,34.1,21.7,29.79,West,276,0.0,0.0,60,0.00,,---,0.00,VWS V14.01,2013-02-01 08:27:00,
2013-02-01 03:30:00,34.0,22.0,29.79,West,275,0.0,0.0,61,0.00,,---,0.00,VWS V14.01,2013-02-01 08:30:00,
2013-02-01 03:32:00,33.8,22.2,29.79,West,276,0.0,0.0,62,0.00,,---,0.00,VWS V14.01,2013-02-01 08:32:00,
2013-02-01 03:37:00,33.5,22.6,29.78,NNE,18,0.0,1.0,64,0.00,,---,0.00,VWS V14.01,2013-02-01 08:37:00,
2013-02-01 03:40:00,33.3,23.9,29.78,NNE,18,0.0,1.0,68,0.00,,---,0.00,VWS V14.01,2013-02-01 08:40:00,
2013-02-01 03:42:00,33.1,23.0,29.78,NNE,18,0.0,0.0,66,0.00,,---,0.00,VWS V14.01,2013-02-01 08:42:00,
2013-02-01 03:47:00,32.7,24.0,29.77,ENE,70,0.0,1.0,70,0.00,,---,0.00,VWS V14.01,2013-02-01 08:47:00,
2013-02-01 03:50:00,32.6,23.9,29.78,ENE,71,0.0,1.0,70,0.00,,---,0.00,VWS V14.01,2013-02-01 08:50:00,
2013-02-01 03:52:00,32.5,24.5,29.78,ENE,71,0.0,0.0,72,0.00,,---,0.00,VWS V14.01,2013-02-01 08:52:00,
2013-02-01 03:57:00,32.1,23.8,29.78,ENE,65,0.0,0.0,71,0.00,,---,0.00,VWS V14.01,2013-02-01 08:57:00,
2013-02-01 04:00:00,32.0,23.3,29.78,ENE,65,0.0,1.0,70,0.00,,---,0.00,VWS V14.01,2013-02-01 09:00:00,
2013-02-01 04:02:00,31.9,23.6,29.78,NE,39,0.0,0.0,71,0.00,,---,0.00,VWS V14.01,2013-02-01 09:02:00,
2013-02-01 04:07:00,31.8,23.5,29.78,NE,39,0.0,0.0,71,0.00,,---,0.00,VWS V14.01,2013-02-01 09:07:00,
2013-02-01 04:10:00,31.8,24.5,29.78,ENE,60,0.0,0.0,74,0.00,,---,0.00,VWS V14.01,2013-02-01 09:10:00,
2013-02-01 04:12:00,31.8,24.5,29.79,ENE,58,0.0,1.0,74,0.00,,---,0.00,VWS V14.01,2013-02-01 09:12:00,
2013-02-01 04:17:00,31.7,24.0,29.78,SE,128,0.0,1.0,73,0.00,,---,0.00,VWS V14.01,2013-02-01 09:17:00,
2013-02-01 04:20:00,31.7,24.4,29.78,NNW,332,1.0,2.0,74,0.00,,---,0.00,VWS V14.01,2013-02-01 09:20:00,
2013-02-01 04:22:00,31.7,24.0,29.78,NNW,333,0.0,2.0,73,0.00,,---,0.00,VWS V14.01,2013-02-01 09:22:00,
2013-02-01 04:27:00,31.7,23.0,29.79,NNW,335,0.0,2.0,70,0.00,,---,0.00,VWS V14.01,2013-02-01 09:27:00,
2013-02-01 04:30:00,31.7,22.7,29.78,NNW,334,0.0,2.0,69,0.00,,---,0.00,VWS V14.01,2013-02-01 09:30:00,
2013-02-01 04:32:00,31.8,22.8,29.79,NNW,335,0.0,0.0,69,0.00,,---,0.00,VWS V14.01,2013-02-01 09:32:00,
2013-02-01 04:37:00,31.9,23.2,29.79,NNW,335,0.0,0.0,70,0.00,,---,0.00,VWS V14.01,2013-02-01 09:37:00,
2013-02-01 04:40:00,31.9,23.6,29.80,NNW,334,0.0,0.0,71,0.00,,---,0.00,VWS V14.01,2013-02-01 09:40:00,
2013-02-01 04:42:00,32.0,23.0,29.80,WSW,250,3.0,3.0,69,0.00,,---,0.00,VWS V14.01,2013-02-01 09:42:00,
2013-02-01 04:47:00,32.1,23.4,29.79,NW,315,1.0,3.0,70,0.00,,---,0.00,VWS V14.01,2013-02-01 09:47:00,
2013-02-01 04:50:00,32.2,23.5,29.79,NW,322,2.0,3.0,70,0.00,,---,0.00,VWS V14.01,2013-02-01 09:50:00,
2013-02-01 04:52:00,32.3,23.3,29.79,NNW,332,1.0,5.0,69,0.00,,---,0.00,VWS V14.01,2013-02-01 09:52:00,
2013-02-01 04:57:00,32.4,22.7,29.80,NNE,19,2.0,5.0,67,0.00,,---,0.00,VWS V14.01,2013-02-01 09:57:00,
2013-02-01 05:00:00,32.4,22.7,29.80,NNE,17,0.0,5.0,67,0.00,,---,0.00,VWS V14.01,2013-02-01 10:00:00,
2013-02-01 05:02:00,32.3,22.6,29.80,North,352,2.0,3.0,67,0.00,,---,0.00,VWS V14.01,2013-02-01 10:02:00,
2013-02-01 05:07:00,32.4,23.0,29.82,NW,312,2.0,4.0,68,0.00,,---,0.00,VWS V14.01,2013-02-01 10:07:00,
2013-02-01 05:10:00,32.4,23.0,29.83,NNW,329,4.0,7.0,68,0.00,,---,0.00,VWS V14.01,2013-02-01 10:10:00,
2013-02-01 05:12:00,32.5,22.8,29.83,WNW,293,4.0,10.0,67,0.00,,---,0.00,VWS V14.01,2013-02-01 10:12:00,
2013-02-01 05:17:00,32.2,23.5,29.84,West,277,9.0,10.0,70,0.00,,---,0.00,VWS V14.01,2013-02-01 10:17:00,
2013-02-01 05:20:00,31.9,25.2,29.84,WNW,285,4.0,10.0,76,0.00,,---,0.00,VWS V14.01,2013-02-01 10:20:00,
2013-02-01 05:22:00,31.4,25.0,29.84,WSW,256,1.0,8.0,77,0.00,,---,0.00,VWS V14.01,2013-02-01 10:22:00,
2013-02-01 05:27:00,31.0,25.3,29.84,SW,228,0.0,8.0,79,0.00,,---,0.00,VWS V14.01,2013-02-01 10:27:00,
2013-02-01 05:30:00,30.9,25.2,29.84,SSW,193,0.0,8.0,79,0.00,,---,0.00,VWS V14.01,2013-02-01 10:30:00,
2013-02-01 05:32:00,30.8,25.4,29.84,SW,219,1.0,2.0,80,0.00,,---,0.00,VWS V14.01,2013-02-01 10:32:00,
2013-02-01 05:37:00,30.6,25.5,29.84,SW,225,0.0,2.0,81,0.00,,---,0.00,VWS V14.01,2013-02-01 10:37:00,
2013-02-01 05:40:00,30.6,25.5,29.84,SW,225,0.0,2.0,81,0.00,,---,0.00,VWS V14.01,2013-02-01 10:40:00,
2013-02-01 05:42:00,30.5,25.4,29.84,SW,225,0.0,0.0,81,0.00,,---,0.00,VWS V14.01,2013-02-01 10:42:00,
2013-02-01 05:48:00,30.2,25.4,29.84,SW,225,0.0,0.0,82,0.00,,---,0.00,VWS V14.01,2013-02-01 10:48:00,
2013-02-01 05:50:00,30.2,25.4,29.84,SW,225,0.0,0.0,82,0.00,,---,0.00,VWS V14.01,2013-02-01 10:50:00,
2013-02-01 05:53:00,30.0,25.5,29.85,WSW,249,0.0,0.0,83,0.00,,---,0.00,VWS V14.01,2013-02-01 10:53:00,
2013-02-01 05:58:00,29.7,25.5,29.86,NW,317,0.0,2.0,84,0.00,,---,0.00,VWS V14.01,2013-02-01 10:58:00,
2013-02-01 06:00:00,29.7,25.5,29.86,NE,50,1.0,2.0,84,0.00,,---,0.00,VWS V14.01,2013-02-01 11:00:00,
2013-02-01 06:03:00,29.9,25.7,29.87,NW,315,7.0,11.0,84,0.00,,---,0.00,VWS V14.01,2013-02-01 11:03:00,
2013-02-01 06:08:00,30.7,25.3,29.87,WNW,303,9.0,19.0,80,0.00,,---,0.00,VWS V14.01,2013-02-01 11:08:00,
2013-02-01 06:10:00,29.5,12.2,29.95,WNW,289,3.0,16.0,48,0.00,,---,0.00,VWS V14.01,2013-02-01 11:10:00,
2013-02-01 06:13:00,31.1,23.5,29.87,West,277,5.0,10.0,73,0.00,,---,0.00,VWS V14.01,2013-02-01 11:13:00,
2013-02-01 06:18:00,31.3,21.3,29.88,West,263,3.0,15.0,66,0.00,,---,0.00,VWS V14.01,2013-02-01 11:18:00,
2013-02-01 06:20:00,29.1,11.9,29.96,WNW,289,5.0,21.0,48,0.00,,---,0.00,VWS V14.01,2013-02-01 11:20:00,
2013-02-01 06:23:00,31.2,20.8,29.89,NNW,338,4.0,11.0,65,0.00,,---,0.00,VWS V14.01,2013-02-01 11:23:00,
2013-02-01 06:28:00,31.1,19.2,29.89,WNW,300,10.0,16.0,61,0.00,,---,0.00,VWS V14.01,2013-02-01 11:28:00,
2013-02-01 06:30:00,28.6,7.3,29.97,WNW,302,25.0,27.0,40,0.00,,---,0.00,VWS V14.01,2013-02-01 11:30:00,
2013-02-01 06:33:00,31.0,15.9,29.90,NNW,336,6.0,24.0,53,0.00,,---,0.00,VWS V14.01,2013-02-01 11:33:00,
2013-02-01 06:38:00,30.8,14.4,29.91,WNW,295,6.0,24.0,50,0.00,,---,0.00,VWS V14.01,2013-02-01 11:38:00,
2013-02-01 06:40:00,28.0,6.3,29.98,NNW,334,14.0,25.0,39,0.00,,---,0.00,VWS V14.01,2013-02-01 11:40:00,
2013-02-01 06:43:00,30.5,13.6,29.92,NNW,333,5.0,13.0,49,0.00,,---,0.00,VWS V14.01,2013-02-01 11:43:00,
2013-02-01 06:48:00,30.2,13.4,29.93,NW,319,6.0,16.0,49,0.00,,---,0.00,VWS V14.01,2013-02-01 11:48:00,
2013-02-01 06:50:00,27.9,5.6,29.99,NW,319,5.0,28.0,38,0.00,,---,0.00,VWS V14.01,2013-02-01 11:50:00,
2013-02-01 06:53:00,30.0,12.2,29.93,WNW,298,10.0,16.0,47,0.00,,---,0.00,VWS V14.01,2013-02-01 11:53:00,
2013-02-01 06:58:00,29.7,11.5,29.94,West,264,10.0,19.0,46,0.00,,---,0.00,VWS V14.01,2013-02-01 11:58:00,
2013-02-01 07:00:00,28.0,6.8,29.99,WNW,283,17.0,21.0,40,0.00,,---,0.00,VWS V14.01,2013-02-01 12:00:00,
2013-02-01 07:03:00,29.7,11.5,29.95,West,263,11.0,14.0,46,0.00,,---,0.00,VWS V14.01,2013-02-01 12:03:00,
2013-02-01 07:08:00,29.5,12.2,29.95,WNW,284,7.0,16.0,48,0.00,,---,0.00,VWS V14.01,2013-02-01 12:08:00,
2013-02-01 07:10:00,28.1,6.3,30.01,West,260,7.0,21.0,39,0.00,,---,0.00,VWS V14.01,2013-02-01 12:10:00,
2013-02-01 07:13:00,29.3,12.5,29.95,West,264,6.0,10.0,49,0.00,,---,0.00,VWS V14.01,2013-02-01 12:13:00,
2013-02-01 07:18:00,29.1,11.9,29.96,WNW,285,15.0,21.0,48,0.00,,---,0.00,VWS V14.01,2013-02-01 12:18:00,
2013-02-01 07:20:00,28.0,5.7,30.02,WNW,299,7.0,22.0,38,0.00,,---,0.00,VWS V14.01,2013-02-01 12:20:00,
2013-02-01 07:23:00,28.9,11.2,29.96,WNW,293,11.0,15.0,47,0.00,,---,0.00,VWS V14.01,2013-02-01 12:23:00,
2013-02-01 07:28:00,28.7,7.4,29.97,West,264,14.0,26.0,40,0.00,,---,0.00,VWS V14.01,2013-02-01 12:28:00,
2013-02-01 07:30:00,28.2,5.3,30.03,NNW,333,5.0,16.0,37,0.00,,---,0.00,VWS V14.01,2013-02-01 12:30:00,
2013-02-01 07:33:00,28.4,6.6,29.97,WNW,297,9.0,25.0,39,0.00,,---,0.00,VWS V14.01,2013-02-01 12:33:00,
2013-02-01 07:38:00,28.1,6.3,29.98,WNW,285,10.0,25.0,39,0.00,,---,0.00,VWS V14.01,2013-02-01 12:38:00,
2013-02-01 07:40:00,28.2,4.1,30.04,WNW,294,13.0,21.0,35,0.00,,---,0.00,VWS V14.01,2013-02-01 12:40:00,
2013-02-01 07:43:00,27.9,5.0,29.99,North,356,12.0,23.0,37,0.00,,---,0.00,VWS V14.01,2013-02-01 12:43:00,
2013-02-01 07:48:00,27.9,5.0,29.99,WNW,286,7.0,28.0,37,0.00,,---,0.00,VWS V14.01,2013-02-01 12:48:00,
2013-02-01 07:50:00,28.3,5.4,30.05,NW,316,7.0,18.0,37,0.00,,---,0.00,VWS V14.01,2013-02-01 12:50:00,
2013-02-01 07:53:00,27.9,5.6,29.99,NW,319,11.0,21.0,38,0.00,,---,0.00,VWS V14.01,2013-02-01 12:53:00,
2013-02-01 07:58:00,28.0,5.7,30.00,WNW,294,8.0,21.0,38,0.00,,---,0.00,VWS V14.01,2013-02-01 12:58:00,
2013-02-01 08:00:00,28.1,4.6,30.06,West,259,9.0,18.0,36,0.00,,---,0.00,VWS V14.01,2013-02-01 13:00:00,
2013-02-01 08:03:00,28.0,5.7,30.00,NW,314,5.0,21.0,38,0.00,,---,0.00,VWS V14.01,2013-02-01 13:03:00,
2013-02-01 08:08:00,28.1,5.8,30.01,West,259,7.0,21.0,38,0.00,,---,0.00,VWS V14.01,2013-02-01 13:08:00,
2013-02-01 08:10:00,27.8,4.3,30.07,West,280,1.0,18.0,36,0.00,,---,0.00,VWS V14.01,2013-02-01 13:10:00,
2013-02-01 08:13:00,28.0,5.1,30.01,WNW,283,7.0,17.0,37,0.00,,---,0.00,VWS V14.01,2013-02-01 13:13:00,
2013-02-01 08:18:00,28.0,5.7,30.02,WNW,283,7.0,22.0,38,0.00,,---,0.00,VWS V14.01,2013-02-01 13:18:00,
2013-02-01 08:20:00,28.1,4.0,30.08,West,259,8.0,22.0,35,0.00,,---,0.00,VWS V14.01,2013-02-01 13:20:00,
2013-02-01 08:23:00,28.1,5.2,30.02,West,275,11.0,11.0,37,0.00,,---,0.00,VWS V14.01,2013-02-01 13:23:00,
2013-02-01 08:28:00,28.1,5.2,30.03,West,262,10.0,12.0,37,0.00,,---,0.00,VWS V14.01,2013-02-01 13:28:00,
2013-02-01 08:30:00,27.7,4.2,30.08,NW,309,9.0,20.0,36,0.00,,---,0.00,VWS V14.01,2013-02-01 13:30:00,
2013-02-01 08:33:00,28.2,4.7,30.04,NNE,25,11.0,19.0,36,0.00,,---,0.00,VWS V14.01,2013-02-01 13:33:00,
2013-02-01 08:38:00,28.2,5.3,30.05,WNW,294,12.0,21.0,37,0.00,,---,0.00,VWS V14.01,2013-02-01 13:38:00,
2013-02-01 08:40:00,27.2,5.5,30.09,WNW,283,13.0,17.0,39,0.00,,---,0.00,VWS V14.01,2013-02-01 13:40:00,
2013-02-01 08:43:00,28.2,5.3,30.05,SW,232,6.0,13.0,37,0.00,,---,0.00,VWS V14.01,2013-02-01 13:43:00,
2013-02-01 08:48:00,28.3,6.0,30.05,West,269,12.0,18.0,38,0.00,,---,0.00,VWS V14.01,2013-02-01 13:48:00,
2013-02-01 08:50:00,26.7,5.6,30.10,West,271,7.0,17.0,40,0.00,,---,0.00,VWS V14.01,2013-02-01 13:50:00,
2013-02-01 08:53:00,28.2,4.7,30.05,WNW,285,6.0,18.0,36,0.00,,---,0.00,VWS V14.01,2013-02-01 13:53:00,
2013-02-01 08:58:00,28.3,4.8,30.06,West,269,9.0,18.0,36,0.00,,---,0.00,VWS V14.01,2013-02-01 13:58:00,
2013-02-01 09:00:00,26.0,5.5,30.11,West,259,7.0,21.0,41,0.00,,---,0.00,VWS V14.01,2013-02-01 14:00:00,
2013-02-01 09:03:00,28.0,5.1,30.06,West,280,9.0,18.0,37,0.00,,---,0.00,VWS V14.01,2013-02-01 14:03:00,
2013-02-01 09:08:00,27.8,4.3,30.06,NNE,15,6.0,18.0,36,0.00,,---,0.00,VWS V14.01,2013-02-01 14:08:00,
2013-02-01 09:10:00,25.4,4.5,30.11,NW,308,12.0,17.0,40,0.00,,---,0.00,VWS V14.01,2013-02-01 14:10:00,
2013-02-01 09:13:00,27.9,5.0,30.07,WNW,288,2.0,16.0,37,0.00,,---,0.00,VWS V14.01,2013-02-01 14:13:00,
2013-02-01 09:18:00,28.2,4.1,30.07,West,271,17.0,22.0,35,0.00,,---,0.00,VWS V14.01,2013-02-01 14:18:00,
2013-02-01 09:20:00,25.3,4.9,30.12,WSW,257,6.0,23.0,41,0.00,,---,0.00,VWS V14.01,2013-02-01 14:20:00,
2013-02-01 09:23:00,27.8,3.7,30.08,WNW,290,10.0,20.0,35,0.00,,---,0.00,VWS V14.01,2013-02-01 14:23:00,
2013-02-01 09:28:00,27.8,3.7,30.08,West,281,15.0,20.0,35,0.00,,---,0.00,VWS V14.01,2013-02-01 14:28:00,
2013-02-01 09:30:00,25.4,3.9,30.12,WSW,256,15.0,20.0,39,0.00,,---,0.00,VWS V14.01,2013-02-01 14:30:00,
2013-02-01 09:33:00,27.8,6.1,30.08,WNW,288,10.0,12.0,39,0.00,,---,0.00,VWS V14.01,2013-02-01 14:33:00,
2013-02-01 09:38:00,27.3,5.1,30.09,SW,231,8.0,17.0,38,0.00,,---,0.00,VWS V14.01,2013-02-01 14:38:00,
2013-02-01 09:40:00,25.5,4.0,30.13,NW,319,9.0,22.0,39,0.00,,---,0.00,VWS V14.01,2013-02-01 14:40:00,
2013-02-01 09:43:00,27.1,6.0,30.09,WNW,290,10.0,16.0,40,0.00,,---,0.00,VWS V14.01,2013-02-01 14:43:00,
2013-02-01 09:48:00,27.0,5.3,30.11,West,278,14.0,16.0,39,0.00,,---,0.00,VWS V14.01,2013-02-01 14:48:00,
2013-02-01 09:50:00,25.7,4.7,30.14,WNW,295,17.0,21.0,40,0.00,,---,0.00,VWS V14.01,2013-02-01 14:50:00,
2013-02-01 09:53:00,26.5,6.5,30.10,WNW,293,8.0,16.0,42,0.00,,---,0.00,VWS V14.01,2013-02-01 14:53:00,
2013-02-01 09:58:00,26.1,5.6,30.11,NW,319,10.0,21.0,41,0.00,,---,0.00,VWS V14.01,2013-02-01 14:58:00,
2013-02-01 10:00:00,25.7,2.5,30.15,West,264,11.0,23.0,36,0.00,,---,0.00,VWS V14.01,2013-02-01 15:00:00,
2013-02-01 10:03:00,25.7,5.3,30.11,NNW,346,6.0,16.0,41,0.00,,---,0.00,VWS V14.01,2013-02-01 15:03:00,
2013-02-01 10:08:00,25.4,4.5,30.11,WNW,283,7.0,16.0,40,0.00,,---,0.00,VWS V14.01,2013-02-01 15:08:00,
2013-02-01 10:10:00,25.9,2.0,30.15,WNW,303,10.0,21.0,35,0.00,,---,0.00,VWS V14.01,2013-02-01 15:10:00,
2013-02-01 10:13:00,25.1,2.5,30.12,WNW,287,13.0,18.0,37,0.00,,---,0.00,VWS V14.01,2013-02-01 15:13:00,
2013-02-01 10:18:00,25.2,3.7,30.12,NW,305,8.0,23.0,39,0.00,,---,0.00,VWS V14.01,2013-02-01 15:18:00,
2013-02-01 10:20:00,25.7,1.9,30.15,West,279,8.0,20.0,35,0.00,,---,0.00,VWS V14.01,2013-02-01 15:20:00,
2013-02-01 10:23:00,25.5,4.6,30.13,NW,312,7.0,19.0,40,0.00,,---,0.00,VWS V14.01,2013-02-01 15:23:00,
2013-02-01 10:28:00,25.5,4.6,30.12,WNW,283,11.0,19.0,40,0.00,,---,0.00,VWS V14.01,2013-02-01 15:28:00,
2013-02-01 10:30:00,26.3,1.8,30.16,NW,311,5.0,18.0,34,0.00,,---,0.00,VWS V14.01,2013-02-01 15:30:00,
2013-02-01 10:33:00,25.2,4.3,30.13,NW,312,6.0,21.0,40,0.00,,---,0.00,VWS V14.01,2013-02-01 15:33:00,
2013-02-01 10:38:00,25.5,4.6,30.13,North,352,7.0,22.0,40,0.00,,---,0.00,VWS V14.01,2013-02-01 15:38:00,
2013-02-01 10:40:00,26.8,3.4,30.17,WNW,297,12.0,18.0,36,0.00,,---,0.00,VWS V14.01,2013-02-01 15:40:00,
2013-02-01 10:43:00,25.4,4.5,30.13,West,263,12.0,21.0,40,0.00,,---,0.00,VWS V14.01,2013-02-01 15:43:00,
2013-02-01 10:48:00,25.7,4.7,30.14,WSW,254,16.0,21.0,40,0.00,,---,0.00,VWS V14.01,2013-02-01 15:48:00,
2013-02-01 10:50:00,26.8,2.8,30.17,WNW,285,15.0,20.0,35,0.00,,---,0.00,VWS V14.01,2013-02-01 15:50:00,
2013-02-01 10:53:00,25.5,4.0,30.14,West,263,8.0,23.0,39,0.00,,---,0.00,VWS V14.01,2013-02-01 15:53:00,
2013-02-01 10:58:00,25.7,2.5,30.14,WNW,301,13.0,23.0,36,0.00,,---,0.00,VWS V14.01,2013-02-01 15:58:00,
2013-02-01 11:00:00,27.2,2.6,30.17,WNW,287,6.0,20.0,34,0.00,,---,0.00,VWS V14.01,2013-02-01 16:00:00,
2013-02-01 11:03:00,26.0,4.4,30.14,West,264,9.0,15.0,39,0.00,,---,0.00,VWS V14.01,2013-02-01 16:03:00,
2013-02-01 11:08:00,26.1,2.8,30.15,WNW,303,12.0,21.0,36,0.00,,---,0.00,VWS V14.01,2013-02-01 16:08:00,
2013-02-01 11:10:00,27.3,2.7,30.17,West,274,5.0,19.0,34,0.00,,---,0.00,VWS V14.01,2013-02-01 16:10:00,
2013-02-01 11:13:00,25.8,1.3,30.15,West,281,11.0,19.0,34,0.00,,---,0.00,VWS V14.01,2013-02-01 16:13:00,
2013-02-01 11:18:00,25.7,1.9,30.15,NW,316,8.0,20.0,35,0.00,,---,0.00,VWS V14.01,2013-02-01 16:18:00,
2013-02-01 11:20:00,27.4,2.7,30.17,WNW,303,7.0,19.0,34,0.00,,---,0.00,VWS V14.01,2013-02-01 16:20:00,
2013-02-01 11:23:00,26.1,1.6,30.15,WNW,291,14.0,17.0,34,0.00,,---,0.00,VWS V14.01,2013-02-01 16:23:00,
2013-02-01 11:28:00,26.3,2.4,30.16,West,273,9.0,18.0,35,0.00,,---,0.00,VWS V14.01,2013-02-01 16:28:00,
2013-02-01 11:30:00,27.5,2.8,30.17,WNW,298,16.0,22.0,34,0.00,,---,0.00,VWS V14.01,2013-02-01 16:30:00,
2013-02-01 11:33:00,26.6,2.7,30.16,NNW,346,7.0,15.0,35,0.00,,---,0.00,VWS V14.01,2013-02-01 16:33:00,
2013-02-01 11:38:00,26.7,3.3,30.17,WSW,257,4.0,18.0,36,0.00,,---,0.00,VWS V14.01,2013-02-01 16:38:00,
2013-02-01 11:40:00,28.1,4.6,30.17,West,278,8.0,20.0,36,0.00,,---,0.00,VWS V14.01,2013-02-01 16:40:00,
2013-02-01 11:43:00,26.6,2.7,30.17,West,277,11.0,16.0,35,0.00,,---,0.00,VWS V14.01,2013-02-01 16:43:00,
2013-02-01 11:48:00,26.8,1.6,30.17,WSW,242,6.0,17.0,33,0.00,,---,0.00,VWS V14.01,2013-02-01 16:48:00,
2013-02-01 11:50:00,28.4,3.6,30.17,NW,304,6.0,16.0,34,0.00,,---,0.00,VWS V14.01,2013-02-01 16:50:00,
2013-02-01 11:53:00,26.9,2.9,30.17,WNW,293,1.0,20.0,35,0.00,,---,0.00,VWS V14.01,2013-02-01 16:53:00,
2013-02-01 11:58:00,27.3,3.3,30.17,WNW,288,8.0,20.0,35,0.00,,---,0.00,VWS V14.01,2013-02-01 16:58:00,
2013-02-01 12:00:00,28.3,2.9,30.17,West,278,6.0,16.0,33,0.00,,---,0.00,VWS V14.01,2013-02-01 17:00:00,
2013-02-01 12:03:00,27.3,2.0,30.17,WNW,285,10.0,18.0,33,0.00,,---,0.00,VWS V14.01,2013-02-01 17:03:00,
2013-02-01 12:08:00,27.2,2.6,30.17,NW,305,7.0,19.0,34,0.00,,---,0.00,VWS V14.01,2013-02-01 17:08:00,
2013-02-01 12:10:00,28.8,4.0,30.17,West,262,11.0,16.0,34,0.00,,---,0.00,VWS V14.01,2013-02-01 17:10:00,
2013-02-01 12:13:00,27.3,3.3,30.17,NNE,27,11.0,18.0,35,0.00,,---,0.00,VWS V14.01,2013-02-01 17:13:00,
2013-02-01 12:18:00,27.4,2.7,30.17,WNW,285,11.0,19.0,34,0.00,,---,0.00,VWS V14.01,2013-02-01 17:18:00,
2013-02-01 12:20:00,28.3,2.9,30.18,WNW,302,15.0,19.0,33,0.00,,---,0.00,VWS V14.01,2013-02-01 17:20:00,
2013-02-01 12:23:00,27.7,3.6,30.17,West,259,15.0,17.0,35,0.00,,---,0.00,VWS V14.01,2013-02-01 17:23:00,
2013-02-01 12:29:00,27.6,2.3,30.17,NW,311,11.0,22.0,33,0.00,,---,0.00,VWS V14.01,2013-02-01 17:29:00,
2013-02-01 12:30:00,28.4,2.3,30.17,NW,312,3.0,21.0,32,0.00,,---,0.00,VWS V14.01,2013-02-01 17:30:00,
2013-02-01 12:34:00,27.4,2.7,30.17,WNW,288,6.0,20.0,34,0.00,,---,0.00,VWS V14.01,2013-02-01 17:34:00,
2013-02-01 12:39:00,28.0,5.7,30.17,West,281,11.0,20.0,38,0.00,,---,0.00,VWS V14.01,2013-02-01 17:39:00,
2013-02-01 12:40:00,28.7,3.2,30.17,WNW,302,9.0,18.0,33,0.00,,---,0.00,VWS V14.01,2013-02-01 17:40:00,
2013-02-01 12:44:00,28.3,4.2,30.17,West,281,6.0,12.0,35,0.00,,---,0.00,VWS V14.01,2013-02-01 17:44:00,
2013-02-01 12:49:00,28.4,3.0,30.17,NW,326,4.0,16.0,33,0.00,,---,0.00,VWS V14.01,2013-02-01 17:49:00,
2013-02-01 12:50:00,28.9,2.1,30.17,WNW,291,5.0,19.0,31,0.00,,---,0.00,VWS V14.01,2013-02-01 17:50:00,
2013-02-01 12:54:00,28.3,2.9,30.17,WNW,288,11.0,15.0,33,0.00,,---,0.00,VWS V14.01,2013-02-01 17:54:00,
2013-02-01 12:59:00,28.3,4.2,30.17,WNW,302,6.0,16.0,35,0.00,,---,0.00,VWS V14.01,2013-02-01 17:59:00,
2013-02-01 13:00:00,28.8,2.0,30.17,West,281,12.0,23.0,31,0.00,,---,0.00,VWS V14.01,2013-02-01 18:00:00,
2013-02-01 13:04:00,28.4,3.6,30.17,WNW,293,5.0,16.0,34,0.00,,---,0.00,VWS V14.01,2013-02-01 18:04:00,
2013-02-01 13:09:00,28.8,4.0,30.17,WNW,285,9.0,16.0,34,0.00,,---,0.00,VWS V14.01,2013-02-01 18:09:00,
2013-02-01 13:10:00,29.2,2.3,30.17,WNW,301,10.0,17.0,31,0.00,,---,0.00,VWS V14.01,2013-02-01 18:10:00,
2013-02-01 13:14:00,28.6,4.4,30.17,WNW,285,10.0,19.0,35,0.00,,---,0.00,VWS V14.01,2013-02-01 18:14:00,
2013-02-01 13:19:00,28.3,2.9,30.17,West,281,11.0,19.0,33,0.00,,---,0.00,VWS V14.01,2013-02-01 18:19:00,
2013-02-01 13:20:00,29.7,3.5,30.17,WNW,294,10.0,18.0,32,0.00,,---,0.00,VWS V14.01,2013-02-01 18:20:00,
2013-02-01 13:24:00,28.2,2.8,30.17,West,273,11.0,21.0,33,0.00,,---,0.00,VWS V14.01,2013-02-01 18:24:00,
2013-02-01 13:29:00,28.3,2.2,30.17,North,354,5.0,21.0,32,0.00,,---,0.00,VWS V14.01,2013-02-01 18:29:00,
2013-02-01 13:30:00,29.3,2.4,30.17,WNW,297,6.0,20.0,31,0.00,,---,0.00,VWS V14.01,2013-02-01 18:30:00,
2013-02-01 13:34:00,28.5,4.3,30.17,WSW,248,12.0,18.0,35,0.00,,---,0.00,VWS V14.01,2013-02-01 18:34:00,
2013-02-01 13:39:00,28.7,3.9,30.17,WNW,302,13.0,18.0,34,0.00,,---,0.00,VWS V14.01,2013-02-01 18:39:00,
2013-02-01 13:40:00,30.0,3.7,30.18,WNW,293,12.0,20.0,32,0.00,,---,0.00,VWS V14.01,2013-02-01 18:40:00,
2013-02-01 13:44:00,29.0,2.8,30.17,North,352,10.0,18.0,32,0.00,,---,0.00,VWS V14.01,2013-02-01 18:44:00,
2013-02-01 13:49:00,28.9,2.1,30.17,North,349,6.0,19.0,31,0.00,,---,0.00,VWS V14.01,2013-02-01 18:49:00,
2013-02-01 13:50:00,29.7,2.8,30.18,WNW,301,5.0,17.0,31,0.00,,---,0.00,VWS V14.01,2013-02-01 18:50:00,
2013-02-01 13:54:00,28.9,2.1,30.17,WNW,301,12.0,20.0,31,0.00,,---,0.00,VWS V14.01,2013-02-01 18:54:00,
2013-02-01 13:59:00,28.9,2.1,30.17,WNW,301,10.0,23.0,31,0.00,,---,0.00,VWS V14.01,2013-02-01 18:59:00,
2013-02-01 14:00:00,29.8,2.9,30.18,WNW,291,12.0,20.0,31,0.00,,---,0.00,VWS V14.01,2013-02-01 19:00:00,
2013-02-01 14:04:00,29.1,3.6,30.17,NNW,332,9.0,14.0,33,0.00,,---,0.00,VWS V14.01,2013-02-01 19:04:00,
2013-02-01 14:09:00,29.2,2.3,30.17,NW,322,13.0,17.0,31,0.00,,---,0.00,VWS V14.01,2013-02-01 19:09:00,
2013-02-01 14:10:00,29.9,3.6,30.19,WNW,291,8.0,18.0,32,0.00,,---,0.00,VWS V14.01,2013-02-01 19:10:00,
2013-02-01 14:14:00,29.3,3.1,30.17,NNW,328,9.0,17.0,32,0.00,,---,0.00,VWS V14.01,2013-02-01 19:14:00,
2013-02-01 14:19:00,29.7,3.5,30.17,WNW,302,9.0,18.0,32,0.00,,---,0.00,VWS V14.01,2013-02-01 19:19:00,
2013-02-01 14:20:00,30.1,2.4,30.19,NNW,332,6.0,17.0,30,0.00,,---,0.00,VWS V14.01,2013-02-01 19:20:00,
2013-02-01 14:24:00,29.8,4.2,30.18,WNW,285,12.0,15.0,33,0.00,,---,0.00,VWS V14.01,2013-02-01 19:24:00,
2013-02-01 14:29:00,29.3,1.7,30.17,WNW,302,9.0,20.0,30,0.00,,---,0.00,VWS V14.01,2013-02-01 19:29:00,
2013-02-01 14:30:00,30.3,3.3,30.20,WNW,287,8.0,17.0,31,0.00,,---,0.00,VWS V14.01,2013-02-01 19:30:00,
2013-02-01 14:34:00,29.7,4.8,30.18,WNW,295,5.0,16.0,34,0.00,,---,0.00,VWS V14.01,2013-02-01 19:34:00,
2013-02-01 14:39:00,30.0,3.7,30.18,North,352,5.0,20.0,32,0.00,,---,0.00,VWS V14.01,2013-02-01 19:39:00,
2013-02-01 14:40:00,30.5,4.2,30.20,WNW,298,19.0,19.0,32,0.00,,---,0.00,VWS V14.01,2013-02-01 19:40:00,
2013-02-01 14:44:00,29.8,2.9,30.18,WNW,294,9.0,17.0,31,0.00,,---,0.00,VWS V14.01,2013-02-01 19:44:00,
2013-02-01 14:49:00,29.8,2.9,30.18,WNW,303,5.0,17.0,31,0.00,,---,0.00,VWS V14.01,2013-02-01 19:49:00,
2013-02-01 14:50:00,29.9,2.2,30.21,NW,321,4.0,19.0,30,0.00,,---,0.00,VWS V14.01,2013-02-01 19:50:00,
2013-02-01 14:54:00,30.1,3.8,30.18,WNW,282,6.0,12.0,32,0.00,,---,0.00,VWS V14.01,2013-02-01 19:54:00,
2013-02-01 14:59:00,29.8,2.9,30.18,WNW,298,15.0,20.0,31,0.00,,---,0.00,VWS V14.01,2013-02-01 19:59:00,
2013-02-01 15:00:00,29.8,2.9,30.21,WNW,287,10.0,17.0,31,0.00,,---,0.00,VWS V14.01,2013-02-01 20:00:00,
2013-02-01 15:04:00,30.0,3.7,30.18,NNW,343,17.0,17.0,32,0.00,,---,0.00,VWS V14.01,2013-02-01 20:04:00,
2013-02-01 15:09:00,29.9,3.6,30.19,WNW,284,7.0,18.0,32,0.00,,---,0.00,VWS V14.01,2013-02-01 20:09:00,
2013-02-01 15:10:00,29.8,2.9,30.21,NNW,347,10.0,15.0,31,0.00,,---,0.00,VWS V14.01,2013-02-01 20:10:00,
2013-02-01 15:14:00,29.9,3.6,30.19,West,262,4.0,17.0,32,0.00,,---,0.00,VWS V14.01,2013-02-01 20:14:00,
2013-02-01 15:19:00,30.1,2.4,30.19,North,6,5.0,17.0,30,0.00,,---,0.00,VWS V14.01,2013-02-01 20:19:00,
2013-02-01 15:20:00,29.7,2.8,30.21,WSW,254,9.0,16.0,31,0.00,,---,0.00,VWS V14.01,2013-02-01 20:20:00,
2013-02-01 15:24:00,30.0,2.3,30.19,WNW,295,4.0,17.0,30,0.00,,---,0.00,VWS V14.01,2013-02-01 20:24:00,
2013-02-01 15:29:00,30.3,3.3,30.19,WNW,287,8.0,17.0,31,0.00,,---,0.00,VWS V14.01,2013-02-01 20:29:00,
2013-02-01 15:30:00,29.4,2.5,30.23,WNW,290,7.0,14.0,31,0.00,,---,0.00,VWS V14.01,2013-02-01 20:30:00,
2013-02-01 15:34:00,30.1,3.1,30.20,West,273,8.0,17.0,31,0.00,,---,0.00,VWS V14.01,2013-02-01 20:34:00,
2013-02-01 15:39:00,30.5,4.2,30.20,WNW,298,19.0,19.0,32,0.00,,---,0.00,VWS V14.01,2013-02-01 20:39:00,
2013-02-01 15:40:00,29.2,1.6,30.23,North,1,7.0,11.0,30,0.00,,---,0.00,VWS V14.01,2013-02-01 20:40:00,
2013-02-01 15:44:00,30.2,3.2,30.20,WNW,297,8.0,19.0,31,0.00,,---,0.00,VWS V14.01,2013-02-01 20:44:00,
2013-02-01 15:49:00,29.9,2.2,30.21,NW,321,4.0,19.0,30,0.00,,---,0.00,VWS V14.01,2013-02-01 20:49:00,
2013-02-01 15:50:00,28.9,2.1,30.24,WNW,295,10.0,12.0,31,0.00,,---,0.00,VWS V14.01,2013-02-01 20:50:00,
2013-02-01 15:54:00,29.7,2.1,30.20,West,281,7.0,15.0,30,0.00,,---,0.00,VWS V14.01,2013-02-01 20:54:00,
2013-02-01 16:00:00,29.8,2.9,30.21,WNW,290,8.0,10.0,31,0.00,,---,0.00,VWS V14.01,2013-02-01 21:00:00,
2013-02-01 16:05:00,29.8,2.9,30.21,NW,304,7.0,11.0,31,0.00,,---,0.00,VWS V14.01,2013-02-01 21:05:00,
2013-02-01 16:10:00,29.8,2.9,30.21,WNW,288,5.0,10.0,31,0.00,,---,0.00,VWS V14.01,2013-02-01 21:10:00,
2013-02-01 16:15:00,29.8,2.9,30.21,WNW,300,9.0,16.0,31,0.00,,---,0.00,VWS V14.01,2013-02-01 21:15:00,
2013-02-01 16:20:00,29.7,2.8,30.21,WNW,287,10.0,16.0,31,0.00,,---,0.00,VWS V14.01,2013-02-01 21:20:00,
2013-02-01 16:25:00,29.5,2.6,30.22,NW,312,7.0,11.0,31,0.00,,---,0.00,VWS V14.01,2013-02-01 21:25:00,
2013-02-01 16:30:00,29.4,2.5,30.23,WSW,244,11.0,11.0,31,0.00,,---,0.00,VWS V14.01,2013-02-01 21:30:00,
2013-02-01 16:35:00,29.2,2.3,30.23,WNW,284,6.0,11.0,31,0.00,,---,0.00,VWS V14.01,2013-02-01 21:35:00,
2013-02-01 16:40:00,29.1,1.5,30.23,West,277,4.0,7.0,30,0.00,,---,0.00,VWS V14.01,2013-02-01 21:40:00,
2013-02-01 16:45:00,28.9,2.1,30.23,NNW,332,12.0,12.0,31,0.00,,---,0.00,VWS V14.01,2013-02-01 21:45:00,
2013-02-01 16:50:00,28.9,2.1,30.24,West,259,8.0,10.0,31,0.00,,---,0.00,VWS V14.01,2013-02-01 21:50:00,
2013-02-01 16:55:00,28.8,2.0,30.24,NW,304,6.0,10.0,31,0.00,,---,0.00,VWS V14.01,2013-02-01 21:55:00,
2013-02-01 17:00:00,28.5,1.7,30.25,NW,307,4.0,4.0,31,0.00,,---,0.00,VWS V14.01,2013-02-01 22:00:00,
2013-02-01 17:05:00,28.3,1.5,30.25,NNE,25,1.0,8.0,31,0.00,,---,0.00,VWS V14.01,2013-02-01 22:05:00,
2013-02-01 17:10:00,28.5,2.4,30.25,North,349,1.0,1.0,32,0.00,,---,0.00,VWS V14.01,2013-02-01 22:10:00,
2013-02-01 17:15:00,28.2,2.1,30.25,WNW,291,3.0,8.0,32,0.00,,---,0.00,VWS V14.01,2013-02-01 22:15:00,
2013-02-01 17:20:00,27.9,2.5,30.26,NE,40,1.0,3.0,33,0.00,,---,0.00,VWS V14.01,2013-02-01 22:20:00,
2013-02-01 17:25:00,27.3,2.0,30.26,WNW,290,4.0,10.0,33,0.00,,---,0.00,VWS V14.01,2013-02-01 22:25:00,
2013-02-01 17:30:00,26.9,2.3,30.26,SSW,208,3.0,4.0,34,0.00,,---,0.00,VWS V14.01,2013-02-01 22:30:00,
2013-02-01 17:35:00,26.6,2.0,30.26,NW,307,4.0,6.0,34,0.00,,---,0.00,VWS V14.01,2013-02-01 22:35:00,
2013-02-01 17:40:00,26.2,2.9,30.27,WNW,295,2.0,2.0,36,0.00,,---,0.00,VWS V14.01,2013-02-01 22:40:00,
2013-02-01 17:45:00,25.9,2.0,30.27,WNW,290,4.0,7.0,35,0.00,,---,0.00,VWS V14.01,2013-02-01 22:45:00,
2013-02-01 17:50:00,25.7,1.9,30.27,NNW,337,2.0,4.0,35,0.00,,---,0.00,VWS V14.01,2013-02-01 22:50:00,
2013-02-01 17:55:00,25.5,2.3,30.27,West,274,6.0,7.0,36,0.00,,---,0.00,VWS V14.01,2013-02-01 22:55:00,
2013-02-01 18:00:00,25.3,2.1,30.27,NW,309,3.0,3.0,36,0.00,,---,0.00,VWS V14.01,2013-02-01 23:00:00,
2013-02-01 18:05:00,25.1,1.9,30.27,NW,316,2.0,8.0,36,0.00,,---,0.00,VWS V14.01,2013-02-01 23:05:00,
2013-02-01 18:10:00,25.0,2.4,30.27,WNW,298,4.0,4.0,37,0.00,,---,0.00,VWS V14.01,2013-02-01 23:10:00,
2013-02-01 18:15:00,24.9,1.7,30.28,West,269,7.0,10.0,36,0.00,,---,0.00,VWS V14.01,2013-02-01 23:15:00,
2013-02-01 18:20:00,24.8,2.2,30.28,WNW,287,2.0,3.0,37,0.00,,---,0.00,VWS V14.01,2013-02-01 23:20:00,
2013-02-01 18:25:00,24.6,2.1,30.29,WNW,290,2.0,6.0,37,0.00,,---,0.00,VWS V14.01,2013-02-01 23:25:00,
2013-02-01 18:30:00,24.5,2.0,30.29,West,279,1.0,1.0,37,0.00,,---,0.00,VWS V14.01,2013-02-01 23:30:00,
2013-02-01 18:35:00,24.3,2.9,30.29,West,277,0.0,5.0,39,0.00,,---,0.00,VWS V14.01,2013-02-01 23:35:00,
2013-02-01 18:40:00,24.0,2.1,30.30,WNW,297,1.0,2.0,38,0.00,,---,0.00,VWS V14.01,2013-02-01 23:40:00,
2013-02-01 18:45:00,23.8,1.9,30.30,NNW,334,1.0,2.0,38,0.00,,---,0.00,VWS V14.01,2013-02-01 23:45:00,
2013-02-01 18:50:00,23.7,1.8,30.30,NW,308,2.0,2.0,38,0.00,,---,0.00,VWS V14.01,2013-02-01 23:50:00,
2013-02-01 18:55:00,23.4,2.7,30.30,NW,322,1.0,2.0,40,0.00,,---,0.00,VWS V14.01,2013-02-01 23:55:00,
2013-02-01 19:00:00,23.2,3.5,30.31,WNW,297,2.0,3.0,42,0.00,,---,0.00,VWS V14.01,2013-02-02 00:00:00,
2013-02-01 19:05:00,22.9,2.7,30.31,NW,326,0.0,5.0,41,0.00,,---,0.00,VWS V14.01,2013-02-02 00:05:00,
2013-02-01 19:10:00,22.8,3.2,30.31,NW,314,1.0,3.0,42,0.00,,---,0.00,VWS V14.01,2013-02-02 00:10:00,
2013-02-01 19:15:00,22.7,3.1,30.31,WNW,298,0.0,3.0,42,0.00,,---,0.00,VWS V14.01,2013-02-02 00:15:00,
2013-02-01 19:20:00,22.6,3.5,30.32,WNW,292,3.0,3.0,43,0.00,,---,0.00,VWS V14.01,2013-02-02 00:20:00,
2013-02-01 19:25:00,22.5,3.9,30.32,West,263,2.0,5.0,44,0.00,,---,0.00,VWS V14.01,2013-02-02 00:25:00,
2013-02-01 19:30:00,22.4,3.8,30.32,West,273,2.0,3.0,44,0.00,,---,0.00,VWS V14.01,2013-02-02 00:30:00,
2013-02-01 19:35:00,22.3,4.2,30.32,WNW,284,3.0,6.0,45,0.00,,---,0.00,VWS V14.01,2013-02-02 00:35:00,
2013-02-01 19:40:00,22.4,4.3,30.32,WNW,285,4.0,7.0,45,0.00,,---,0.00,VWS V14.01,2013-02-02 00:40:00,
2013-02-01 19:45:00,22.4,3.8,30.32,WNW,290,3.0,7.0,44,0.00,,---,0.00,VWS V14.01,2013-02-02 00:45:00,
2013-02-01 19:50:00,22.5,3.4,30.32,WNW,288,1.0,4.0,43,0.00,,---,0.00,VWS V14.01,2013-02-02 00:50:00,
2013-02-01 19:55:00,22.4,3.3,30.33,West,278,0.0,6.0,43,0.00,,---,0.00,VWS V14.01,2013-02-02 00:55:00,
2013-02-01 20:00:00,22.4,3.3,30.33,WNW,284,1.0,3.0,43,0.00,,---,0.00,VWS V14.01,2013-02-02 01:00:00,
2013-02-01 20:05:00,22.2,3.1,30.33,North,350,0.0,3.0,43,0.00,,---,0.00,VWS V14.01,2013-02-02 01:05:00,
2013-02-01 20:10:00,22.0,2.9,30.33,SW,236,0.0,7.0,43,0.00,,---,0.00,VWS V14.01,2013-02-02 01:10:00,
2013-02-01 20:15:00,21.9,3.3,30.33,West,271,1.0,7.0,44,0.00,,---,0.00,VWS V14.01,2013-02-02 01:15:00,
2013-02-01 20:20:00,21.8,2.8,30.33,WSW,239,1.0,1.0,43,0.00,,---,0.00,VWS V14.01,2013-02-02 01:20:00,
2013-02-01 20:25:00,21.6,3.1,30.33,SW,226,0.0,1.0,44,0.00,,---,0.00,VWS V14.01,2013-02-02 01:25:00,
2013-02-01 20:30:00,21.5,2.5,30.33,NW,308,0.0,0.0,43,0.00,,---,0.00,VWS V14.01,2013-02-02 01:30:00,
2013-02-01 20:35:00,21.3,2.8,30.34,NW,308,0.0,0.0,44,0.00,,---,0.00,VWS V14.01,2013-02-02 01:35:00,
2013-02-01 20:40:00,20.9,3.4,30.34,East,91,0.0,0.0,46,0.00,,---,0.00,VWS V14.01,2013-02-02 01:40:00,
2013-02-01 20:45:00,20.7,4.1,30.34,NNE,25,1.0,2.0,48,0.00,,---,0.00,VWS V14.01,2013-02-02 01:45:00,
2013-02-01 20:50:00,20.5,4.4,30.34,WNW,284,0.0,0.0,49,0.00,,---,0.00,VWS V14.01,2013-02-02 01:50:00,
2013-02-01 20:55:00,19.9,3.8,30.34,WNW,284,0.0,0.0,49,0.00,,---,0.00,VWS V14.01,2013-02-02 01:55:00,
2013-02-01 21:00:00,19.4,4.7,30.35,WNW,284,0.0,0.0,52,0.00,,---,0.00,VWS V14.01,2013-02-02 02:00:00,
2013-02-01 21:06:00,18.9,4.6,30.35,WNW,284,0.0,0.0,53,0.00,,---,0.00,VWS V14.01,2013-02-02 02:06:00,
2013-02-01 21:10:00,18.8,6.5,30.38,NW,308,0.0,2.0,58,0.00,,---,0.00,VWS V14.01,2013-02-02 02:10:00,
2013-02-01 21:11:00,18.5,5.4,30.35,NW,323,0.0,0.0,56,0.00,,---,0.00,VWS V14.01,2013-02-02 02:11:00,
2013-02-01 21:16:00,18.7,5.2,30.35,NW,323,0.0,0.0,55,0.00,,---,0.00,VWS V14.01,2013-02-02 02:16:00,
2013-02-01 21:20:00,18.4,5.3,30.38,WNW,282,0.0,2.0,56,0.00,,---,0.00,VWS V14.01,2013-02-02 02:20:00,
2013-02-01 21:21:00,18.7,5.6,30.36,NW,323,0.0,0.0,56,0.00,,---,0.00,VWS V14.01,2013-02-02 02:21:00,
2013-02-01 21:26:00,18.6,6.7,30.36,NW,323,0.0,0.0,59,0.00,,---,0.00,VWS V14.01,2013-02-02 02:26:00,
2013-02-01 21:30:00,18.1,5.4,30.38,SE,136,1.0,2.0,57,0.00,,---,0.00,VWS V14.01,2013-02-02 02:30:00,
2013-02-01 21:31:00,18.7,4.4,30.36,NW,316,0.0,2.0,53,0.00,,---,0.00,VWS V14.01,2013-02-02 02:31:00,
2013-02-01 21:36:00,19.0,5.1,30.37,West,264,0.0,2.0,54,0.00,,---,0.00,VWS V14.01,2013-02-02 02:36:00,
2013-02-01 21:40:00,17.3,6.2,30.38,ENE,70,2.0,3.0,61,0.00,,---,0.00,VWS V14.01,2013-02-02 02:40:00,
2013-02-01 21:41:00,19.2,4.1,30.37,WNW,294,4.0,4.0,51,0.00,,---,0.00,VWS V14.01,2013-02-02 02:41:00,
2013-02-01 21:46:00,19.6,4.0,30.37,WNW,300,2.0,4.0,50,0.00,,---,0.00,VWS V14.01,2013-02-02 02:46:00,
2013-02-01 21:50:00,17.1,6.3,30.38,SE,134,0.0,3.0,62,0.00,,---,0.00,VWS V14.01,2013-02-02 02:50:00,
2013-02-01 21:51:00,19.7,4.1,30.37,NW,316,1.0,3.0,50,0.00,,---,0.00,VWS V14.01,2013-02-02 02:51:00,
2013-02-01 21:56:00,19.7,4.9,30.37,WNW,291,1.0,4.0,52,0.00,,---,0.00,VWS V14.01,2013-02-02 02:56:00,
2013-02-01 22:00:00,17.0,6.2,30.38,East,94,0.0,1.0,62,0.00,,---,0.00,VWS V14.01,2013-02-02 03:00:00,
2013-02-01 22:01:00,19.4,5.5,30.38,WNW,289,0.0,0.0,54,0.00,,---,0.00,VWS V14.01,2013-02-02 03:01:00,
2013-02-01 22:06:00,19.0,5.5,30.37,WNW,288,0.0,2.0,55,0.00,,---,0.00,VWS V14.01,2013-02-02 03:06:00,
2013-02-01 22:10:00,16.9,6.5,30.38,NW,319,1.0,2.0,63,0.00,,---,0.00,VWS V14.01,2013-02-02 03:10:00,
2013-02-01 22:11:00,18.8,6.1,30.37,NW,308,0.0,0.0,57,0.00,,---,0.00,VWS V14.01,2013-02-02 03:11:00,
2013-02-01 22:16:00,18.6,5.9,30.37,NW,308,0.0,2.0,57,0.00,,---,0.00,VWS V14.01,2013-02-02 03:16:00,
2013-02-01 22:20:00,17.1,4.9,30.39,NNW,346,0.0,2.0,58,0.00,,---,0.00,VWS V14.01,2013-02-02 03:20:00,
2013-02-01 22:21:00,18.4,5.3,30.38,West,281,0.0,0.0,56,0.00,,---,0.00,VWS V14.01,2013-02-02 03:21:00,
2013-02-01 22:26:00,18.2,5.5,30.38,SSW,201,0.0,0.0,57,0.00,,---,0.00,VWS V14.01,2013-02-02 03:26:00,
2013-02-01 22:30:00,16.7,6.7,30.38,NNW,346,0.0,1.0,64,0.00,,---,0.00,VWS V14.01,2013-02-02 03:30:00,
2013-02-01 22:31:00,18.1,5.4,30.38,ESE,121,1.0,1.0,57,0.00,,---,0.00,VWS V14.01,2013-02-02 03:31:00,
2013-02-01 22:36:00,17.5,7.1,30.38,East,81,2.0,2.0,63,0.00,,---,0.00,VWS V14.01,2013-02-02 03:36:00,
2013-02-01 22:40:00,16.1,7.7,30.39,ESE,109,1.0,1.0,69,0.00,,---,0.00,VWS V14.01,2013-02-02 03:40:00,
2013-02-01 22:41:00,17.3,6.5,30.38,East,82,1.0,3.0,62,0.00,,---,0.00,VWS V14.01,2013-02-02 03:41:00,
2013-02-01 22:46:00,17.1,5.6,30.38,ENE,78,2.0,3.0,60,0.00,,---,0.00,VWS V14.01,2013-02-02 03:46:00,
2013-02-01 22:50:00,15.9,7.2,30.39,SSE,161,0.0,3.0,68,0.00,,---,0.00,VWS V14.01,2013-02-02 03:50:00,
2013-02-01 22:51:00,17.1,6.3,30.38,SE,135,0.0,0.0,62,0.00,,---,0.00,VWS V14.01,2013-02-02 03:51:00,
2013-02-01 22:56:00,17.0,5.9,30.39,East,94,0.0,1.0,61,0.00,,---,0.00,VWS V14.01,2013-02-02 03:56:00,
2013-02-01 23:00:00,15.5,7.5,30.39,WSW,255,0.0,1.0,70,0.00,,---,0.00,VWS V14.01,2013-02-02 04:00:00,
2013-02-01 23:01:00,17.0,6.2,30.39,East,93,0.0,1.0,62,0.00,,---,0.00,VWS V14.01,2013-02-02 04:01:00,
2013-02-01 23:06:00,16.9,6.2,30.39,NW,319,1.0,1.0,62,0.00,,---,0.00,VWS V14.01,2013-02-02 04:06:00,
2013-02-01 23:10:00,15.4,7.4,30.39,East,88,0.0,1.0,70,0.00,,---,0.00,VWS V14.01,2013-02-02 04:10:00,
2013-02-01 23:11:00,16.9,6.8,30.38,NNW,334,1.0,2.0,64,0.00,,---,0.00,VWS V14.01,2013-02-02 04:11:00,
2013-02-01 23:16:00,16.9,5.4,30.38,North,352,0.0,2.0,60,0.00,,---,0.00,VWS V14.01,2013-02-02 04:16:00,
2013-02-01 23:20:00,15.4,7.4,30.39,NW,319,0.0,2.0,70,0.00,,---,0.00,VWS V14.01,2013-02-02 04:20:00,
2013-02-01 23:21:00,17.2,4.6,30.39,NNW,346,0.0,0.0,57,0.00,,---,0.00,VWS V14.01,2013-02-02 04:21:00,
2013-02-01 23:26:00,17.0,6.6,30.39,NNW,346,0.0,1.0,63,0.00,,---,0.00,VWS V14.01,2013-02-02 04:26:00,
2013-02-01 23:30:00,15.3,7.0,30.39,North,3,1.0,2.0,69,0.00,,---,0.00,VWS V14.01,2013-02-02 04:30:00,
2013-02-01 23:31:00,16.5,6.8,30.38,NNW,346,0.0,0.0,65,0.00,,---,0.00,VWS V14.01,2013-02-02 04:31:00,
2013-02-01 23:36:00,16.2,6.5,30.38,NNW,346,0.0,0.0,65,0.00,,---,0.00,VWS V14.01,2013-02-02 04:36:00,
2013-02-01 23:40:00,15.0,8.2,30.39,SSW,198,0.0,1.0,74,0.00,,---,0.00,VWS V14.01,2013-02-02 04:40:00,
2013-02-01 23:41:00,16.1,7.7,30.39,ESE,113,2.0,2.0,69,0.00,,---,0.00,VWS V14.01,2013-02-02 04:41:00,
2013-02-01 23:46:00,15.9,7.5,30.39,SSE,149,3.0,3.0,69,0.00,,---,0.00,VWS V14.01,2013-02-02 04:46:00,
2013-02-01 23:50:00,14.3,7.8,30.38,SSW,198,0.0,0.0,75,0.00,,---,0.00,VWS V14.01,2013-02-02 04:50:00,
2013-02-01 23:51:00,15.8,7.1,30.39,SSE,160,0.0,0.0,68,0.00,,---,0.00,VWS V14.01,2013-02-02 04:51:00,
2013-02-01 23:56:00,15.5,7.8,30.39,SSE,160,1.0,1.0,71,0.00,,---,0.00,VWS V14.01,2013-02-02 04:56:00,